sensor_id;sensor_type;location;lat;lon;timestamp;P1;durP1;ratioP1;P2;durP2;ratioP2
74867;SDS011;63419;42.262;12.210;2023-06-04T00:01:36;11.98;;;6.10;;
74867;SDS011;63419;42.262;12.210;2023-06-04T00:04:03;11.05;;;5.55;;
74867;SDS011;63419;42.262;12.210;2023-06-04T00:06:31;10.57;;;5.05;;
74867;SDS011;63419;42.262;12.210;2023-06-04T00:11:25;16.63;;;4.97;;
74867;SDS011;63419;42.262;12.210;2023-06-04T00:13:53;12.18;;;5.10;;
74867;SDS011;63419;42.262;12.210;2023-06-04T00:18:47;11.98;;;4.97;;
74867;SDS011;63419;42.262;12.210;2023-06-04T00:23:41;12.80;;;4.80;;
74867;SDS011;63419;42.262;12.210;2023-06-04T00:26:09;9.70;;;4.78;;
74867;SDS011;63419;42.262;12.210;2023-06-04T00:31:04;10.82;;;4.10;;
74867;SDS011;63419;42.262;12.210;2023-06-04T00:33:35;14.10;;;5.38;;
74867;SDS011;63419;42.262;12.210;2023-06-04T00:36:03;10.82;;;4.78;;
74867;SDS011;63419;42.262;12.210;2023-06-04T00:38:30;10.30;;;5.20;;
74867;SDS011;63419;42.262;12.210;2023-06-04T00:43:24;13.90;;;4.90;;
74867;SDS011;63419;42.262;12.210;2023-06-04T00:45:54;10.93;;;5.50;;
74867;SDS011;63419;42.262;12.210;2023-06-04T00:48:22;12.77;;;4.57;;
74867;SDS011;63419;42.262;12.210;2023-06-04T00:50:50;13.15;;;5.22;;
74867;SDS011;63419;42.262;12.210;2023-06-04T00:53:17;11.95;;;5.90;;
74867;SDS011;63419;42.262;12.210;2023-06-04T00:58:12;10.68;;;4.95;;
74867;SDS011;63419;42.262;12.210;2023-06-04T01:00:42;11.57;;;5.40;;
74867;SDS011;63419;42.262;12.210;2023-06-04T01:03:13;11.13;;;5.63;;
74867;SDS011;63419;42.262;12.210;2023-06-04T01:05:48;12.50;;;5.97;;
74867;SDS011;63419;42.262;12.210;2023-06-04T01:08:23;12.75;;;5.57;;
74867;SDS011;63419;42.262;12.210;2023-06-04T01:10:52;13.60;;;7.10;;
74867;SDS011;63419;42.262;12.210;2023-06-04T01:13:20;12.27;;;5.93;;
74867;SDS011;63419;42.262;12.210;2023-06-04T01:15:48;13.25;;;6.07;;
74867;SDS011;63419;42.262;12.210;2023-06-04T01:20:57;11.57;;;5.50;;
74867;SDS011;63419;42.262;12.210;2023-06-04T01:23:42;13.98;;;5.63;;
74867;SDS011;63419;42.262;12.210;2023-06-04T01:26:26;11.82;;;5.72;;
74867;SDS011;63419;42.262;12.210;2023-06-04T01:28:58;11.60;;;6.05;;
74867;SDS011;63419;42.262;12.210;2023-06-04T01:31:27;12.70;;;5.68;;
74867;SDS011;63419;42.262;12.210;2023-06-04T01:33:59;10.90;;;5.40;;
74867;SDS011;63419;42.262;12.210;2023-06-04T01:36:26;11.45;;;6.03;;
74867;SDS011;63419;42.262;12.210;2023-06-04T01:41:21;11.77;;;5.97;;
74867;SDS011;63419;42.262;12.210;2023-06-04T01:43:48;12.25;;;5.45;;
74867;SDS011;63419;42.262;12.210;2023-06-04T01:46:16;11.25;;;5.55;;
74867;SDS011;63419;42.262;12.210;2023-06-04T01:48:43;12.05;;;5.50;;
74867;SDS011;63419;42.262;12.210;2023-06-04T01:51:10;13.35;;;5.63;;
74867;SDS011;63419;42.262;12.210;2023-06-04T01:56:04;10.82;;;5.88;;
74867;SDS011;63419;42.262;12.210;2023-06-04T01:58:32;12.48;;;6.07;;
74867;SDS011;63419;42.262;12.210;2023-06-04T02:01:00;13.27;;;5.88;;
74867;SDS011;63419;42.262;12.210;2023-06-04T02:03:30;12.35;;;5.95;;
74867;SDS011;63419;42.262;12.210;2023-06-04T02:06:04;11.40;;;5.80;;
74867;SDS011;63419;42.262;12.210;2023-06-04T02:08:34;13.70;;;5.82;;
74867;SDS011;63419;42.262;12.210;2023-06-04T02:11:01;11.65;;;6.05;;
74867;SDS011;63419;42.262;12.210;2023-06-04T02:13:29;12.90;;;5.82;;
74867;SDS011;63419;42.262;12.210;2023-06-04T02:15:56;14.45;;;6.68;;
74867;SDS011;63419;42.262;12.210;2023-06-04T02:18:23;12.43;;;5.65;;
74867;SDS011;63419;42.262;12.210;2023-06-04T02:20:51;11.77;;;6.35;;
74867;SDS011;63419;42.262;12.210;2023-06-04T02:23:19;12.23;;;6.50;;
74867;SDS011;63419;42.262;12.210;2023-06-04T02:25:47;15.95;;;6.38;;
74867;SDS011;63419;42.262;12.210;2023-06-04T02:28:16;12.73;;;6.32;;
74867;SDS011;63419;42.262;12.210;2023-06-04T02:30:44;13.68;;;6.95;;
74867;SDS011;63419;42.262;12.210;2023-06-04T02:33:12;15.25;;;6.95;;
74867;SDS011;63419;42.262;12.210;2023-06-04T02:35:40;12.50;;;6.63;;
74867;SDS011;63419;42.262;12.210;2023-06-04T02:38:08;11.95;;;6.38;;
74867;SDS011;63419;42.262;12.210;2023-06-04T02:40:35;11.52;;;6.15;;
74867;SDS011;63419;42.262;12.210;2023-06-04T02:45:29;13.48;;;5.53;;
74867;SDS011;63419;42.262;12.210;2023-06-04T02:50:24;12.68;;;5.93;;
74867;SDS011;63419;42.262;12.210;2023-06-04T02:52:51;12.90;;;6.30;;
74867;SDS011;63419;42.262;12.210;2023-06-04T02:57:46;11.93;;;6.03;;
74867;SDS011;63419;42.262;12.210;2023-06-04T03:00:13;14.55;;;6.70;;
74867;SDS011;63419;42.262;12.210;2023-06-04T03:02:46;11.13;;;5.75;;
74867;SDS011;63419;42.262;12.210;2023-06-04T03:05:15;15.95;;;6.68;;
74867;SDS011;63419;42.262;12.210;2023-06-04T03:07:45;13.13;;;6.35;;
74867;SDS011;63419;42.262;12.210;2023-06-04T03:10:13;13.60;;;6.32;;
74867;SDS011;63419;42.262;12.210;2023-06-04T03:12:42;13.00;;;6.63;;
74867;SDS011;63419;42.262;12.210;2023-06-04T03:15:10;13.32;;;5.90;;
74867;SDS011;63419;42.262;12.210;2023-06-04T03:17:38;14.35;;;5.82;;
74867;SDS011;63419;42.262;12.210;2023-06-04T03:20:05;14.45;;;6.35;;
74867;SDS011;63419;42.262;12.210;2023-06-04T03:22:34;15.15;;;6.20;;
74867;SDS011;63419;42.262;12.210;2023-06-04T03:25:02;12.95;;;5.78;;
74867;SDS011;63419;42.262;12.210;2023-06-04T03:27:31;14.70;;;6.60;;
74867;SDS011;63419;42.262;12.210;2023-06-04T03:29:59;15.65;;;6.82;;
74867;SDS011;63419;42.262;12.210;2023-06-04T03:32:26;13.18;;;6.80;;
74867;SDS011;63419;42.262;12.210;2023-06-04T03:34:54;13.70;;;6.63;;
74867;SDS011;63419;42.262;12.210;2023-06-04T03:37:21;12.30;;;6.47;;
74867;SDS011;63419;42.262;12.210;2023-06-04T03:39:48;13.75;;;5.90;;
74867;SDS011;63419;42.262;12.210;2023-06-04T03:42:16;12.75;;;6.60;;
74867;SDS011;63419;42.262;12.210;2023-06-04T03:47:10;11.60;;;5.90;;
74867;SDS011;63419;42.262;12.210;2023-06-04T03:49:37;11.95;;;5.55;;
74867;SDS011;63419;42.262;12.210;2023-06-04T03:54:32;11.27;;;5.47;;
74867;SDS011;63419;42.262;12.210;2023-06-04T03:56:59;16.02;;;6.35;;
74867;SDS011;63419;42.262;12.210;2023-06-04T03:59:26;12.48;;;5.43;;
74867;SDS011;63419;42.262;12.210;2023-06-04T04:04:21;13.77;;;5.30;;
74867;SDS011;63419;42.262;12.210;2023-06-04T04:09:16;12.00;;;5.72;;
74867;SDS011;63419;42.262;12.210;2023-06-04T04:14:10;12.13;;;5.45;;
74867;SDS011;63419;42.262;12.210;2023-06-04T04:16:37;12.32;;;6.22;;
74867;SDS011;63419;42.262;12.210;2023-06-04T04:21:35;13.25;;;5.50;;
74867;SDS011;63419;42.262;12.210;2023-06-04T04:24:03;12.43;;;5.93;;
74867;SDS011;63419;42.262;12.210;2023-06-04T04:26:31;12.23;;;5.88;;
74867;SDS011;63419;42.262;12.210;2023-06-04T04:28:58;15.02;;;6.90;;
74867;SDS011;63419;42.262;12.210;2023-06-04T04:31:26;14.02;;;8.00;;
74867;SDS011;63419;42.262;12.210;2023-06-04T04:33:57;15.68;;;7.38;;
74867;SDS011;63419;42.262;12.210;2023-06-04T04:36:24;15.38;;;7.30;;
74867;SDS011;63419;42.262;12.210;2023-06-04T04:38:52;15.88;;;6.80;;
74867;SDS011;63419;42.262;12.210;2023-06-04T04:41:24;14.13;;;6.60;;
74867;SDS011;63419;42.262;12.210;2023-06-04T04:43:52;15.52;;;7.60;;
74867;SDS011;63419;42.262;12.210;2023-06-04T04:46:20;13.32;;;6.75;;
74867;SDS011;63419;42.262;12.210;2023-06-04T04:48:47;17.45;;;6.95;;
74867;SDS011;63419;42.262;12.210;2023-06-04T04:53:42;13.65;;;6.22;;
74867;SDS011;63419;42.262;12.210;2023-06-04T04:56:09;15.07;;;7.15;;
74867;SDS011;63419;42.262;12.210;2023-06-04T04:58:36;13.27;;;6.47;;
74867;SDS011;63419;42.262;12.210;2023-06-04T05:01:04;15.45;;;6.78;;
74867;SDS011;63419;42.262;12.210;2023-06-04T05:03:31;15.45;;;7.63;;
74867;SDS011;63419;42.262;12.210;2023-06-04T05:05:59;14.82;;;7.30;;
74867;SDS011;63419;42.262;12.210;2023-06-04T05:10:53;17.25;;;7.80;;
74867;SDS011;63419;42.262;12.210;2023-06-04T05:13:21;14.40;;;7.30;;
74867;SDS011;63419;42.262;12.210;2023-06-04T05:15:49;16.67;;;7.88;;
74867;SDS011;63419;42.262;12.210;2023-06-04T05:18:19;14.00;;;7.22;;
74867;SDS011;63419;42.262;12.210;2023-06-04T05:20:55;15.98;;;7.78;;
74867;SDS011;63419;42.262;12.210;2023-06-04T05:25:50;15.50;;;7.47;;
74867;SDS011;63419;42.262;12.210;2023-06-04T05:28:18;15.77;;;7.97;;
74867;SDS011;63419;42.262;12.210;2023-06-04T05:30:47;18.30;;;8.73;;
74867;SDS011;63419;42.262;12.210;2023-06-04T05:33:15;18.70;;;8.75;;
74867;SDS011;63419;42.262;12.210;2023-06-04T05:35:46;17.45;;;8.10;;
74867;SDS011;63419;42.262;12.210;2023-06-04T05:38:14;21.15;;;9.63;;
74867;SDS011;63419;42.262;12.210;2023-06-04T05:40:45;19.27;;;8.70;;
74867;SDS011;63419;42.262;12.210;2023-06-04T05:43:12;20.65;;;8.88;;
74867;SDS011;63419;42.262;12.210;2023-06-04T05:45:58;17.85;;;8.35;;
74867;SDS011;63419;42.262;12.210;2023-06-04T05:48:26;21.00;;;9.43;;
74867;SDS011;63419;42.262;12.210;2023-06-04T05:50:53;23.98;;;11.25;;
74867;SDS011;63419;42.262;12.210;2023-06-04T05:53:21;21.40;;;10.10;;
74867;SDS011;63419;42.262;12.210;2023-06-04T05:55:48;25.83;;;10.60;;
74867;SDS011;63419;42.262;12.210;2023-06-04T06:00:43;18.35;;;9.13;;
74867;SDS011;63419;42.262;12.210;2023-06-04T06:03:11;22.45;;;10.30;;
74867;SDS011;63419;42.262;12.210;2023-06-04T06:05:39;21.35;;;9.73;;
74867;SDS011;63419;42.262;12.210;2023-06-04T06:08:06;23.40;;;10.07;;
74867;SDS011;63419;42.262;12.210;2023-06-04T06:10:33;23.10;;;10.50;;
74867;SDS011;63419;42.262;12.210;2023-06-04T06:13:00;24.27;;;10.73;;
74867;SDS011;63419;42.262;12.210;2023-06-04T06:15:28;25.42;;;11.38;;
74867;SDS011;63419;42.262;12.210;2023-06-04T06:17:56;25.50;;;11.27;;
74867;SDS011;63419;42.262;12.210;2023-06-04T06:20:23;22.83;;;11.15;;
74867;SDS011;63419;42.262;12.210;2023-06-04T06:22:50;23.55;;;10.55;;
74867;SDS011;63419;42.262;12.210;2023-06-04T06:25:18;28.27;;;12.43;;
74867;SDS011;63419;42.262;12.210;2023-06-04T06:27:45;23.88;;;12.25;;
74867;SDS011;63419;42.262;12.210;2023-06-04T06:30:14;25.73;;;12.43;;
74867;SDS011;63419;42.262;12.210;2023-06-04T06:32:42;25.83;;;12.68;;
74867;SDS011;63419;42.262;12.210;2023-06-04T06:35:09;28.38;;;12.68;;
74867;SDS011;63419;42.262;12.210;2023-06-04T06:37:36;33.83;;;13.50;;
74867;SDS011;63419;42.262;12.210;2023-06-04T06:40:08;28.60;;;12.65;;
74867;SDS011;63419;42.262;12.210;2023-06-04T06:42:36;24.17;;;13.00;;
74867;SDS011;63419;42.262;12.210;2023-06-04T06:45:03;26.48;;;12.20;;
74867;SDS011;63419;42.262;12.210;2023-06-04T06:47:32;28.60;;;12.25;;
74867;SDS011;63419;42.262;12.210;2023-06-04T06:49:59;23.20;;;12.27;;
74867;SDS011;63419;42.262;12.210;2023-06-04T06:52:26;23.20;;;10.63;;
74867;SDS011;63419;42.262;12.210;2023-06-04T06:54:54;20.15;;;11.07;;
74867;SDS011;63419;42.262;12.210;2023-06-04T06:57:21;23.92;;;11.15;;
74867;SDS011;63419;42.262;12.210;2023-06-04T06:59:48;20.50;;;10.93;;
74867;SDS011;63419;42.262;12.210;2023-06-04T07:02:18;25.65;;;11.07;;
74867;SDS011;63419;42.262;12.210;2023-06-04T07:04:46;23.00;;;11.50;;
74867;SDS011;63419;42.262;12.210;2023-06-04T07:07:13;23.33;;;11.93;;
74867;SDS011;63419;42.262;12.210;2023-06-04T07:09:44;25.48;;;12.80;;
74867;SDS011;63419;42.262;12.210;2023-06-04T07:12:11;22.25;;;11.32;;
74867;SDS011;63419;42.262;12.210;2023-06-04T07:14:38;23.23;;;10.93;;
74867;SDS011;63419;42.262;12.210;2023-06-04T07:17:05;20.13;;;9.35;;
74867;SDS011;63419;42.262;12.210;2023-06-04T07:19:33;17.08;;;8.85;;
74867;SDS011;63419;42.262;12.210;2023-06-04T07:22:00;14.07;;;8.07;;
74867;SDS011;63419;42.262;12.210;2023-06-04T07:24:27;14.30;;;7.88;;
74867;SDS011;63419;42.262;12.210;2023-06-04T07:26:54;13.68;;;8.10;;
74867;SDS011;63419;42.262;12.210;2023-06-04T07:29:22;15.45;;;7.50;;
74867;SDS011;63419;42.262;12.210;2023-06-04T07:31:49;17.08;;;8.20;;
74867;SDS011;63419;42.262;12.210;2023-06-04T07:34:17;13.98;;;7.57;;
74867;SDS011;63419;42.262;12.210;2023-06-04T07:36:44;13.20;;;7.78;;
74867;SDS011;63419;42.262;12.210;2023-06-04T07:39:12;11.02;;;6.40;;
74867;SDS011;63419;42.262;12.210;2023-06-04T07:41:39;13.13;;;6.78;;
74867;SDS011;63419;42.262;12.210;2023-06-04T07:44:07;14.52;;;7.07;;
74867;SDS011;63419;42.262;12.210;2023-06-04T07:46:34;13.68;;;7.13;;
74867;SDS011;63419;42.262;12.210;2023-06-04T07:49:01;11.18;;;6.28;;
74867;SDS011;63419;42.262;12.210;2023-06-04T07:51:29;11.90;;;6.20;;
74867;SDS011;63419;42.262;12.210;2023-06-04T07:53:56;13.00;;;6.50;;
74867;SDS011;63419;42.262;12.210;2023-06-04T07:56:23;12.27;;;6.05;;
74867;SDS011;63419;42.262;12.210;2023-06-04T07:58:52;11.25;;;6.50;;
74867;SDS011;63419;42.262;12.210;2023-06-04T08:01:19;12.95;;;6.53;;
74867;SDS011;63419;42.262;12.210;2023-06-04T08:03:48;10.73;;;5.95;;
74867;SDS011;63419;42.262;12.210;2023-06-04T08:06:15;13.57;;;6.28;;
74867;SDS011;63419;42.262;12.210;2023-06-04T08:08:43;15.10;;;6.28;;
74867;SDS011;63419;42.262;12.210;2023-06-04T08:11:15;13.95;;;6.72;;
74867;SDS011;63419;42.262;12.210;2023-06-04T08:13:42;11.18;;;5.95;;
74867;SDS011;63419;42.262;12.210;2023-06-04T08:16:09;11.77;;;6.55;;
74867;SDS011;63419;42.262;12.210;2023-06-04T08:18:37;12.60;;;6.00;;
74867;SDS011;63419;42.262;12.210;2023-06-04T08:21:09;11.15;;;5.97;;
74867;SDS011;63419;42.262;12.210;2023-06-04T08:23:37;11.80;;;5.68;;
74867;SDS011;63419;42.262;12.210;2023-06-04T08:26:06;11.90;;;5.78;;
74867;SDS011;63419;42.262;12.210;2023-06-04T08:28:34;11.18;;;6.38;;
74867;SDS011;63419;42.262;12.210;2023-06-04T08:31:01;12.13;;;6.93;;
74867;SDS011;63419;42.262;12.210;2023-06-04T08:33:29;11.48;;;6.65;;
74867;SDS011;63419;42.262;12.210;2023-06-04T08:35:56;14.95;;;6.95;;
74867;SDS011;63419;42.262;12.210;2023-06-04T08:38:23;13.40;;;6.57;;
74867;SDS011;63419;42.262;12.210;2023-06-04T08:40:51;10.82;;;5.93;;
74867;SDS011;63419;42.262;12.210;2023-06-04T08:43:19;11.80;;;6.72;;
74867;SDS011;63419;42.262;12.210;2023-06-04T08:45:48;11.93;;;6.07;;
74867;SDS011;63419;42.262;12.210;2023-06-04T08:48:17;11.27;;;6.15;;
74867;SDS011;63419;42.262;12.210;2023-06-04T08:50:48;11.63;;;5.65;;
74867;SDS011;63419;42.262;12.210;2023-06-04T08:53:16;9.27;;;5.55;;
74867;SDS011;63419;42.262;12.210;2023-06-04T08:55:44;12.15;;;6.47;;
74867;SDS011;63419;42.262;12.210;2023-06-04T08:58:13;10.52;;;6.00;;
74867;SDS011;63419;42.262;12.210;2023-06-04T09:00:41;10.30;;;4.93;;
74867;SDS011;63419;42.262;12.210;2023-06-04T09:03:08;12.23;;;6.03;;
74867;SDS011;63419;42.262;12.210;2023-06-04T09:05:37;12.13;;;5.90;;
74867;SDS011;63419;42.262;12.210;2023-06-04T09:08:06;11.43;;;6.63;;
74867;SDS011;63419;42.262;12.210;2023-06-04T09:10:37;14.00;;;6.63;;
74867;SDS011;63419;42.262;12.210;2023-06-04T09:13:06;9.80;;;6.00;;
74867;SDS011;63419;42.262;12.210;2023-06-04T09:15:34;13.57;;;6.50;;
74867;SDS011;63419;42.262;12.210;2023-06-04T09:18:02;11.50;;;5.78;;
74867;SDS011;63419;42.262;12.210;2023-06-04T09:20:29;11.25;;;5.70;;
74867;SDS011;63419;42.262;12.210;2023-06-04T09:22:57;10.75;;;5.18;;
74867;SDS011;63419;42.262;12.210;2023-06-04T09:25:25;8.38;;;4.80;;
74867;SDS011;63419;42.262;12.210;2023-06-04T09:27:54;10.05;;;5.25;;
74867;SDS011;63419;42.262;12.210;2023-06-04T09:30:23;8.52;;;4.85;;
74867;SDS011;63419;42.262;12.210;2023-06-04T09:32:51;8.77;;;4.32;;
74867;SDS011;63419;42.262;12.210;2023-06-04T09:35:20;10.82;;;4.78;;
74867;SDS011;63419;42.262;12.210;2023-06-04T09:37:54;8.27;;;4.32;;
74867;SDS011;63419;42.262;12.210;2023-06-04T09:40:34;9.02;;;3.95;;
74867;SDS011;63419;42.262;12.210;2023-06-04T09:43:02;8.13;;;4.30;;
74867;SDS011;63419;42.262;12.210;2023-06-04T09:45:30;8.20;;;3.70;;
74867;SDS011;63419;42.262;12.210;2023-06-04T09:48:02;7.80;;;3.88;;
74867;SDS011;63419;42.262;12.210;2023-06-04T09:50:35;7.32;;;3.88;;
74867;SDS011;63419;42.262;12.210;2023-06-04T09:53:15;9.00;;;4.43;;
74867;SDS011;63419;42.262;12.210;2023-06-04T09:55:44;8.30;;;4.38;;
74867;SDS011;63419;42.262;12.210;2023-06-04T09:58:11;9.85;;;4.65;;
74867;SDS011;63419;42.262;12.210;2023-06-04T10:00:39;7.22;;;4.13;;
74867;SDS011;63419;42.262;12.210;2023-06-04T10:03:08;10.45;;;4.72;;
74867;SDS011;63419;42.262;12.210;2023-06-04T10:05:42;9.50;;;4.80;;
74867;SDS011;63419;42.262;12.210;2023-06-04T10:08:09;8.13;;;4.53;;
74867;SDS011;63419;42.262;12.210;2023-06-04T10:10:40;9.38;;;5.25;;
74867;SDS011;63419;42.262;12.210;2023-06-04T10:13:09;10.25;;;4.70;;
74867;SDS011;63419;42.262;12.210;2023-06-04T10:15:44;8.73;;;5.22;;
74867;SDS011;63419;42.262;12.210;2023-06-04T10:18:16;9.65;;;4.22;;
74867;SDS011;63419;42.262;12.210;2023-06-04T10:20:43;7.93;;;3.58;;
74867;SDS011;63419;42.262;12.210;2023-06-04T10:23:10;8.30;;;3.60;;
74867;SDS011;63419;42.262;12.210;2023-06-04T10:25:39;6.68;;;3.13;;
74867;SDS011;63419;42.262;12.210;2023-06-04T10:28:06;8.43;;;3.80;;
74867;SDS011;63419;42.262;12.210;2023-06-04T10:30:34;7.18;;;3.75;;
74867;SDS011;63419;42.262;12.210;2023-06-04T10:33:02;7.10;;;3.45;;
74867;SDS011;63419;42.262;12.210;2023-06-04T10:35:33;6.55;;;3.50;;
74867;SDS011;63419;42.262;12.210;2023-06-04T10:38:08;8.95;;;4.40;;
74867;SDS011;63419;42.262;12.210;2023-06-04T10:40:37;7.47;;;4.15;;
74867;SDS011;63419;42.262;12.210;2023-06-04T10:43:08;12.48;;;4.07;;
74867;SDS011;63419;42.262;12.210;2023-06-04T10:45:37;7.82;;;4.13;;
74867;SDS011;63419;42.262;12.210;2023-06-04T10:48:06;7.20;;;4.13;;
74867;SDS011;63419;42.262;12.210;2023-06-04T10:50:35;8.13;;;3.97;;
74867;SDS011;63419;42.262;12.210;2023-06-04T10:53:14;9.55;;;3.80;;
74867;SDS011;63419;42.262;12.210;2023-06-04T10:55:47;7.43;;;4.00;;
74867;SDS011;63419;42.262;12.210;2023-06-04T10:58:15;8.82;;;3.92;;
74867;SDS011;63419;42.262;12.210;2023-06-04T11:00:44;9.45;;;4.32;;
74867;SDS011;63419;42.262;12.210;2023-06-04T11:03:13;11.70;;;4.50;;
74867;SDS011;63419;42.262;12.210;2023-06-04T11:05:45;8.68;;;4.22;;
74867;SDS011;63419;42.262;12.210;2023-06-04T11:08:14;7.82;;;3.42;;
74867;SDS011;63419;42.262;12.210;2023-06-04T11:10:42;8.55;;;4.65;;
74867;SDS011;63419;42.262;12.210;2023-06-04T11:13:11;10.20;;;4.20;;
74867;SDS011;63419;42.262;12.210;2023-06-04T11:15:42;7.05;;;3.60;;
74867;SDS011;63419;42.262;12.210;2023-06-04T11:18:14;10.70;;;4.18;;
74867;SDS011;63419;42.262;12.210;2023-06-04T11:20:43;9.50;;;4.95;;
74867;SDS011;63419;42.262;12.210;2023-06-04T11:23:12;9.68;;;4.25;;
74867;SDS011;63419;42.262;12.210;2023-06-04T11:25:40;10.00;;;4.13;;
74867;SDS011;63419;42.262;12.210;2023-06-04T11:28:16;6.80;;;3.80;;
74867;SDS011;63419;42.262;12.210;2023-06-04T11:31:00;8.45;;;3.92;;
74867;SDS011;63419;42.262;12.210;2023-06-04T11:33:30;10.32;;;4.30;;
74867;SDS011;63419;42.262;12.210;2023-06-04T11:36:08;7.85;;;4.00;;
74867;SDS011;63419;42.262;12.210;2023-06-04T11:38:35;16.88;;;4.80;;
74867;SDS011;63419;42.262;12.210;2023-06-04T11:41:02;8.18;;;4.15;;
74867;SDS011;63419;42.262;12.210;2023-06-04T11:43:32;9.98;;;4.43;;
74867;SDS011;63419;42.262;12.210;2023-06-04T11:46:05;8.32;;;4.32;;
74867;SDS011;63419;42.262;12.210;2023-06-04T11:48:36;9.00;;;4.72;;
74867;SDS011;63419;42.262;12.210;2023-06-04T11:51:07;7.90;;;4.50;;
74867;SDS011;63419;42.262;12.210;2023-06-04T11:53:36;8.77;;;3.83;;
74867;SDS011;63419;42.262;12.210;2023-06-04T11:56:04;9.02;;;3.60;;
74867;SDS011;63419;42.262;12.210;2023-06-04T11:58:32;8.73;;;4.85;;
74867;SDS011;63419;42.262;12.210;2023-06-04T12:01:00;10.25;;;3.97;;
74867;SDS011;63419;42.262;12.210;2023-06-04T12:03:37;8.20;;;3.88;;
74867;SDS011;63419;42.262;12.210;2023-06-04T12:11:33;8.93;;;4.05;;
74867;SDS011;63419;42.262;12.210;2023-06-04T12:14:04;8.45;;;4.40;;
74867;SDS011;63419;42.262;12.210;2023-06-04T12:16:35;7.63;;;4.60;;
74867;SDS011;63419;42.262;12.210;2023-06-04T12:19:06;8.90;;;4.25;;
74867;SDS011;63419;42.262;12.210;2023-06-04T12:21:38;9.40;;;5.00;;
74867;SDS011;63419;42.262;12.210;2023-06-04T12:24:09;7.93;;;4.28;;
74867;SDS011;63419;42.262;12.210;2023-06-04T12:26:38;11.88;;;4.32;;
74867;SDS011;63419;42.262;12.210;2023-06-04T12:29:14;8.85;;;4.45;;
74867;SDS011;63419;42.262;12.210;2023-06-04T12:31:43;8.25;;;4.30;;
74867;SDS011;63419;42.262;12.210;2023-06-04T12:34:15;9.13;;;4.55;;
74867;SDS011;63419;42.262;12.210;2023-06-04T12:36:44;8.63;;;4.53;;
74867;SDS011;63419;42.262;12.210;2023-06-04T12:39:11;8.45;;;3.97;;
74867;SDS011;63419;42.262;12.210;2023-06-04T12:41:38;8.95;;;5.30;;
74867;SDS011;63419;42.262;12.210;2023-06-04T12:44:12;8.95;;;5.55;;
74867;SDS011;63419;42.262;12.210;2023-06-04T12:46:40;12.98;;;6.18;;
74867;SDS011;63419;42.262;12.210;2023-06-04T12:49:07;12.25;;;5.97;;
74867;SDS011;63419;42.262;12.210;2023-06-04T12:51:34;10.95;;;7.07;;
74867;SDS011;63419;42.262;12.210;2023-06-04T12:54:03;13.00;;;7.03;;
74867;SDS011;63419;42.262;12.210;2023-06-04T12:56:30;12.10;;;6.18;;
74867;SDS011;63419;42.262;12.210;2023-06-04T12:58:58;10.23;;;5.97;;
74867;SDS011;63419;42.262;12.210;2023-06-04T13:01:26;10.95;;;5.82;;
74867;SDS011;63419;42.262;12.210;2023-06-04T13:03:54;11.48;;;6.72;;
74867;SDS011;63419;42.262;12.210;2023-06-04T13:06:22;14.63;;;7.78;;
74867;SDS011;63419;42.262;12.210;2023-06-04T13:08:49;12.63;;;7.93;;
74867;SDS011;63419;42.262;12.210;2023-06-04T13:11:16;11.30;;;6.15;;
74867;SDS011;63419;42.262;12.210;2023-06-04T13:13:44;14.13;;;7.78;;
74867;SDS011;63419;42.262;12.210;2023-06-04T13:16:11;12.55;;;6.65;;
74867;SDS011;63419;42.262;12.210;2023-06-04T13:18:39;9.77;;;5.63;;
74867;SDS011;63419;42.262;12.210;2023-06-04T13:21:06;11.35;;;6.85;;
74867;SDS011;63419;42.262;12.210;2023-06-04T13:23:34;13.73;;;6.60;;
74867;SDS011;63419;42.262;12.210;2023-06-04T13:26:16;13.90;;;7.93;;
74867;SDS011;63419;42.262;12.210;2023-06-04T13:28:44;14.05;;;9.80;;
74867;SDS011;63419;42.262;12.210;2023-06-04T13:31:11;15.50;;;8.93;;
74867;SDS011;63419;42.262;12.210;2023-06-04T13:33:38;12.88;;;8.20;;
74867;SDS011;63419;42.262;12.210;2023-06-04T13:36:06;14.20;;;10.45;;
74867;SDS011;63419;42.262;12.210;2023-06-04T13:38:33;13.77;;;7.80;;
74867;SDS011;63419;42.262;12.210;2023-06-04T13:41:00;14.38;;;9.43;;
74867;SDS011;63419;42.262;12.210;2023-06-04T13:43:28;13.68;;;8.13;;
74867;SDS011;63419;42.262;12.210;2023-06-04T13:45:55;11.40;;;6.32;;
74867;SDS011;63419;42.262;12.210;2023-06-04T13:48:23;12.77;;;7.00;;
74867;SDS011;63419;42.262;12.210;2023-06-04T13:50:50;12.35;;;7.13;;
74867;SDS011;63419;42.262;12.210;2023-06-04T13:53:17;9.98;;;6.22;;
74867;SDS011;63419;42.262;12.210;2023-06-04T13:55:45;12.38;;;6.88;;
74867;SDS011;63419;42.262;12.210;2023-06-04T13:58:12;12.65;;;7.00;;
74867;SDS011;63419;42.262;12.210;2023-06-04T14:00:41;10.63;;;6.45;;
74867;SDS011;63419;42.262;12.210;2023-06-04T14:03:08;8.40;;;4.32;;
74867;SDS011;63419;42.262;12.210;2023-06-04T14:05:35;8.88;;;4.55;;
74867;SDS011;63419;42.262;12.210;2023-06-04T14:08:03;9.02;;;4.38;;
74867;SDS011;63419;42.262;12.210;2023-06-04T14:10:30;11.25;;;7.30;;
74867;SDS011;63419;42.262;12.210;2023-06-04T14:12:57;11.13;;;7.85;;
74867;SDS011;63419;42.262;12.210;2023-06-04T14:15:25;11.85;;;7.30;;
74867;SDS011;63419;42.262;12.210;2023-06-04T14:17:52;10.27;;;5.15;;
74867;SDS011;63419;42.262;12.210;2023-06-04T14:20:19;10.43;;;6.53;;
74867;SDS011;63419;42.262;12.210;2023-06-04T14:22:46;11.23;;;6.47;;
74867;SDS011;63419;42.262;12.210;2023-06-04T14:25:15;8.27;;;4.18;;
74867;SDS011;63419;42.262;12.210;2023-06-04T14:27:42;8.45;;;5.15;;
74867;SDS011;63419;42.262;12.210;2023-06-04T14:30:10;9.00;;;4.63;;
74867;SDS011;63419;42.262;12.210;2023-06-04T14:32:38;8.75;;;5.60;;
74867;SDS011;63419;42.262;12.210;2023-06-04T14:35:06;9.15;;;5.47;;
74867;SDS011;63419;42.262;12.210;2023-06-04T14:37:34;9.02;;;5.45;;
74867;SDS011;63419;42.262;12.210;2023-06-04T14:40:02;8.90;;;4.55;;
74867;SDS011;63419;42.262;12.210;2023-06-04T14:42:29;10.57;;;5.55;;
74867;SDS011;63419;42.262;12.210;2023-06-04T14:44:56;8.95;;;5.25;;
74867;SDS011;63419;42.262;12.210;2023-06-04T14:47:23;8.15;;;4.65;;
74867;SDS011;63419;42.262;12.210;2023-06-04T14:49:51;8.88;;;4.85;;
74867;SDS011;63419;42.262;12.210;2023-06-04T14:52:18;9.73;;;5.53;;
74867;SDS011;63419;42.262;12.210;2023-06-04T14:54:46;9.85;;;5.72;;
74867;SDS011;63419;42.262;12.210;2023-06-04T14:57:13;9.43;;;4.93;;
74867;SDS011;63419;42.262;12.210;2023-06-04T14:59:41;10.18;;;5.57;;
74867;SDS011;63419;42.262;12.210;2023-06-04T15:02:09;8.73;;;4.85;;
74867;SDS011;63419;42.262;12.210;2023-06-04T15:04:37;8.95;;;4.93;;
74867;SDS011;63419;42.262;12.210;2023-06-04T15:07:08;9.88;;;5.00;;
74867;SDS011;63419;42.262;12.210;2023-06-04T15:09:36;10.10;;;5.50;;
74867;SDS011;63419;42.262;12.210;2023-06-04T15:12:03;12.02;;;5.32;;
74867;SDS011;63419;42.262;12.210;2023-06-04T15:14:31;9.38;;;5.05;;
74867;SDS011;63419;42.262;12.210;2023-06-04T15:16:58;8.48;;;4.70;;
74867;SDS011;63419;42.262;12.210;2023-06-04T15:19:26;9.00;;;4.20;;
74867;SDS011;63419;42.262;12.210;2023-06-04T15:21:53;8.40;;;4.88;;
74867;SDS011;63419;42.262;12.210;2023-06-04T15:24:20;10.15;;;6.05;;
74867;SDS011;63419;42.262;12.210;2023-06-04T15:26:48;9.60;;;5.43;;
74867;SDS011;63419;42.262;12.210;2023-06-04T15:29:16;8.68;;;5.47;;
74867;SDS011;63419;42.262;12.210;2023-06-04T15:31:43;9.48;;;5.70;;